Time;durP1;ratioP1;P1;durP2;ratioP2;P2;SDS_P1;SDS_P2;PMS_P1;PMS_P2;Temp;Humidity;BMP_temperature;BMP_pressure;BME280_temperature;BME280_humidity;BME280_pressure;Samples;Min_cycle;Max_cycle;Signal;HPM_P1;HPM_P2
2022/10/05 00:01:34;;;;;;;11.02;5.60;;;12.50;99.90;;;-144.05;72.67;125687.94;5015677;28;20034;-86
2022/10/05 00:04:22;;;;;;;18.65;5.95;;;12.40;99.90;;;-144.05;72.55;125687.94;5017071;28;20088;-85
2022/10/05 00:07:16;;;;;;;9.45;5.50;;;12.40;99.90;;;-144.05;73.00;125687.94;5016011;28;20026;-87
2022/10/05 00:09:53;;;;;;;9.50;4.82;;;12.40;99.90;;;-144.05;73.02;125687.94;5017549;28;20068;-87
2022/10/05 00:12:21;;;;;;;7.70;5.22;;;12.40;99.90;;;-144.05;73.40;125687.94;5015878;28;20030;-87
2022/10/05 00:14:54;;;;;;;10.68;5.35;;;12.30;99.90;;;-144.05;73.32;125687.94;5015894;28;20034;-89
2022/10/05 00:17:25;;;;;;;9.35;5.60;;;12.30;99.90;;;-144.05;73.91;125687.94;5016449;28;20026;-88
2022/10/05 00:19:52;;;;;;;7.85;5.43;;;12.30;99.90;;;-144.05;73.55;125687.94;5017778;28;20038;-86
2022/10/05 00:22:32;;;;;;;10.02;5.82;;;12.20;99.90;;;-144.05;74.06;125687.94;5016034;28;20084;-87
2022/10/05 00:25:09;;;;;;;9.25;5.03;;;12.20;99.90;;;-144.05;74.19;125687.94;5016698;28;20117;-88
2022/10/05 00:27:37;;;;;;;13.38;5.95;;;12.20;99.90;;;-144.05;73.91;125687.94;5016793;28;20038;-88
2022/10/05 00:30:14;;;;;;;9.95;5.53;;;12.20;99.90;;;-144.05;74.07;125687.94;5018458;28;20022;-86
2022/10/05 00:32:41;;;;;;;9.75;5.45;;;12.20;99.90;;;-144.05;74.24;125687.94;5021341;28;20034;-88
2022/10/05 00:35:10;;;;;;;12.02;5.82;;;12.30;99.90;;;-144.05;73.97;125687.94;5015247;28;20026;-87
2022/10/05 00:37:36;;;;;;;11.07;5.88;;;12.30;99.90;;;-144.05;73.96;125687.94;5015780;28;20026;-87
2022/10/05 00:40:35;;;;;;;13.35;5.25;;;12.40;99.90;;;-144.05;74.13;125687.94;5015876;28;20030;-87
2022/10/05 00:43:38;;;;;;;10.00;5.50;;;12.40;99.90;;;-144.05;73.85;125687.94;5017233;28;20036;-90
2022/10/05 00:46:39;;;;;;;8.73;5.68;;;12.40;99.90;;;-144.05;73.65;125687.94;5015892;28;20437;-87
2022/10/05 00:50:13;;;;;;;14.00;6.13;;;12.40;99.90;;;-144.05;73.91;125687.94;5014851;28;20034;-86
2022/10/05 00:53:19;;;;;;;9.38;5.70;;;12.40;99.90;;;-144.05;74.21;125687.94;5013379;28;20026;-84
2022/10/05 00:56:04;;;;;;;8.73;5.55;;;12.40;99.90;;;-144.05;74.09;125687.94;5014631;28;20504;-88
2022/10/05 00:59:35;;;;;;;9.30;5.15;;;12.40;99.90;;;-144.05;73.74;125687.94;5012910;28;20121;-86
2022/10/05 01:02:19;;;;;;;12.15;5.65;;;12.50;99.90;;;-144.05;74.31;125687.94;5013386;28;20029;-87
2022/10/05 01:05:38;;;;;;;7.82;5.35;;;12.50;99.90;;;-144.05;74.24;125687.94;5014376;28;20036;-86
2022/10/05 01:09:01;;;;;;;12.63;6.65;;;12.50;99.90;;;-144.05;74.24;125687.94;5013035;28;20026;-86
2022/10/05 01:11:52;;;;;;;13.80;6.20;;;12.50;99.90;;;-144.05;74.58;125687.94;5013048;28;20029;-85
2022/10/05 01:15:38;;;;;;;11.30;5.68;;;12.50;99.90;;;-144.05;74.57;125687.94;5012603;28;20466;-84
2022/10/05 01:18:44;;;;;;;9.93;5.90;;;12.50;99.90;;;-144.05;74.24;125687.94;4991129;28;20046;-86
2022/10/05 01:21:24;;;;;;;8.50;6.13;;;12.50;99.90;;;-144.05;74.55;125687.94;5014008;28;20034;-85
2022/10/05 01:24:18;;;;;;;11.98;6.30;;;12.50;99.90;;;-144.05;74.39;125687.94;5013926;28;20061;-85
2022/10/05 01:27:20;;;;;;;9.70;6.07;;;12.50;99.90;;;-144.05;74.64;125687.94;5012576;28;20397;-83
2022/10/05 01:29:51;;;;;;;17.05;7.10;;;12.50;99.90;;;-144.05;75.11;125687.94;5013898;28;20029;-85
2022/10/05 01:32:30;;;;;;;11.15;6.25;;;12.50;99.90;;;-144.05;75.05;125687.94;5012610;28;20030;-87
2022/10/05 01:35:25;;;;;;;8.52;5.65;;;12.50;99.90;;;-144.05;74.90;125687.94;5012560;28;20540;-86
2022/10/05 01:38:06;;;;;;;8.88;6.07;;;12.50;99.90;;;-144.05;75.25;125687.94;5012394;28;20419;-86
2022/10/05 01:41:00;;;;;;;8.85;6.10;;;12.50;99.90;;;-144.05;74.95;125687.94;5012255;28;20435;-86
2022/10/05 01:43:48;;;;;;;10.43;6.38;;;12.50;99.90;;;-144.05;75.35;125687.94;5012340;28;20076;-86
2022/10/05 01:46:40;;;;;;;8.20;6.13;;;12.50;99.90;;;-144.05;75.30;125687.94;5013591;28;20037;-85
2022/10/05 01:50:03;;;;;;;14.02;6.25;;;12.50;99.90;;;-144.05;75.67;125687.94;5011791;28;20029;-85
2022/10/05 01:53:03;;;;;;;14.55;6.15;;;12.40;99.90;;;-144.05;75.62;125687.94;5012145;28;20398;-86
2022/10/05 01:56:00;;;;;;;13.07;6.28;;;12.40;99.90;;;-144.05;75.80;125687.94;5013611;28;20022;-84
2022/10/05 01:58:58;;;;;;;10.48;6.25;;;12.50;99.90;;;-144.05;75.72;125687.94;5013128;28;20034;-85
2022/10/05 02:01:48;;;;;;;15.20;7.18;;;12.50;99.90;;;-144.05;75.72;125687.94;5011809;28;20088;-85
2022/10/05 02:04:37;;;;;;;10.45;6.57;;;12.50;99.90;;;-144.05;75.77;125687.94;5011732;28;20057;-86
2022/10/05 02:07:19;;;;;;;11.70;6.80;;;12.50;99.90;;;-144.05;75.35;125687.94;5013268;28;20026;-86
2022/10/05 02:10:04;;;;;;;12.93;6.85;;;12.50;99.90;;;-144.05;75.93;125687.94;5011784;28;20449;-85
2022/10/05 02:12:37;;;;;;;11.05;6.05;;;12.50;99.90;;;-144.05;75.83;125687.94;5013398;28;20032;-85
2022/10/05 02:15:40;;;;;;;15.75;7.03;;;12.50;99.90;;;-144.05;75.65;125687.94;5011684;28;20034;-84
2022/10/05 02:18:18;;;;;;;15.70;7.78;;;12.50;99.90;;;-144.05;75.52;125687.94;5011747;28;20026;-85
2022/10/05 02:20:50;;;;;;;11.40;6.22;;;12.50;99.90;;;-144.05;75.59;125687.94;5027562;28;20030;-86
2022/10/05 02:23:27;;;;;;;10.60;6.43;;;12.50;99.90;;;-144.05;75.40;125687.94;5011847;28;20026;-88
2022/10/05 02:25:57;;;;;;;11.60;6.88;;;12.50;99.90;;;-144.05;75.62;125687.94;5013169;28;20044;-86
2022/10/05 02:28:47;;;;;;;10.73;6.82;;;12.60;99.90;;;-144.05;75.20;125687.94;5013958;28;20022;-89
2022/10/05 02:31:28;;;;;;;10.90;6.78;;;12.50;99.90;;;-144.05;75.06;125687.94;5013903;28;20029;-88
2022/10/05 02:34:36;;;;;;;10.40;6.78;;;12.60;99.90;;;-144.05;75.34;125687.94;5014032;28;20371;-88
2022/10/05 02:37:53;;;;;;;11.57;6.47;;;12.60;99.90;;;-144.05;74.89;125687.94;5014431;28;20080;-89
2022/10/05 02:41:09;;;;;;;12.02;6.68;;;12.70;99.90;;;-144.05;74.75;125687.94;5016155;28;20033;-90
2022/10/05 02:44:36;;;;;;;10.77;6.22;;;12.70;99.90;;;-144.05;74.58;125687.94;5016324;28;20047;-87
2022/10/05 02:47:56;;;;;;;11.75;6.25;;;12.70;99.90;;;-144.05;74.07;125687.94;5012748;28;20103;-86
2022/10/05 02:50:57;;;;;;;10.10;6.20;;;12.80;99.90;;;-144.05;74.05;125687.94;5013141;28;20467;-88
2022/10/05 02:54:17;;;;;;;9.45;6.32;;;12.80;99.90;;;-144.05;73.89;125687.94;5012802;28;20237;-88
2022/10/05 02:57:02;;;;;;;13.95;6.32;;;12.80;99.90;;;-144.05;73.47;125687.94;5014135;28;20026;-87
2022/10/05 03:00:08;;;;;;;12.85;6.25;;;12.80;99.90;;;-144.05;73.45;125687.94;5043907;23;20069;-83
2022/10/05 03:02:59;;;;;;;15.57;6.40;;;12.80;99.90;;;-144.05;73.98;125687.94;5032216;28;20041;-81
2022/10/05 03:05:59;;;;;;;10.73;6.22;;;12.80;99.90;;;-144.05;73.53;125687.94;5030913;28;20056;-84
2022/10/05 03:08:45;;;;;;;7.93;5.78;;;12.80;99.90;;;-144.05;73.88;125687.94;5030704;28;20038;-83
2022/10/05 03:11:34;;;;;;;10.35;5.43;;;12.80;99.90;;;-144.05;74.12;125687.94;5032189;28;20021;-85
2022/10/05 03:14:29;;;;;;;10.40;6.57;;;12.70;99.90;;;-144.05;73.86;125687.94;5036816;23;20077;-81
2022/10/05 03:17:17;;;;;;;10.27;6.90;;;12.70;99.90;;;-144.05;74.26;125687.94;5011577;28;20030;-81
2022/10/05 03:20:31;;;;;;;15.25;6.45;;;12.70;99.90;;;-144.05;74.73;125687.94;5011377;28;20069;-80
2022/10/05 03:23:28;;;;;;;10.48;6.18;;;12.70;99.90;;;-144.05;74.58;125687.94;5026397;28;20030;-80
2022/10/05 03:26:22;;;;;;;12.13;6.40;;;12.70;99.90;;;-144.05;74.45;125687.94;5011334;28;20140;-82
2022/10/05 03:29:29;;;;;;;11.32;6.60;;;12.70;99.90;;;-144.05;74.66;125687.94;5011255;28;20277;-81
2022/10/05 03:32:30;;;;;;;11.20;6.60;;;12.60;99.90;;;-144.05;75.06;125687.94;5011723;28;20113;-80
2022/10/05 03:35:19;;;;;;;10.25;6.32;;;12.50;99.90;;;-144.05;74.77;125687.94;5013744;28;20037;-80
2022/10/05 03:37:56;;;;;;;13.38;6.07;;;12.50;99.90;;;-144.05;75.54;125687.94;5013977;28;20092;-80
2022/10/05 03:40:39;;;;;;;12.40;6.65;;;12.50;99.90;;;-144.05;75.79;125687.94;5015999;28;20172;-79
2022/10/05 03:43:48;;;;;;;8.50;6.32;;;12.50;99.90;;;-144.05;75.85;125687.94;5017134;28;20397;-82
2022/10/05 03:47:06;;;;;;;10.90;6.07;;;12.50;99.90;;;-144.05;75.82;125687.94;5016526;28;20064;-81
2022/10/05 03:49:59;;;;;;;12.05;6.13;;;12.40;99.90;;;-144.05;75.79;125687.94;5014210;28;20401;-80
2022/10/05 03:52:48;;;;;;;10.00;7.10;;;12.40;99.90;;;-144.05;76.50;125687.94;5014298;28;20033;-81
2022/10/05 03:56:39;;;;;;;13.23;7.25;;;12.40;99.90;;;-144.05;76.19;125687.94;5015179;28;20100;-82
2022/10/05 03:59:38;;;;;;;10.75;5.90;;;12.40;99.90;;;-144.05;75.90;125687.94;4998194;28;20517;-82
2022/10/05 04:02:25;;;;;;;11.52;6.63;;;12.50;99.90;;;-144.05;76.14;125687.94;5006877;28;20070;-80
2022/10/05 04:05:09;;;;;;;13.25;6.80;;;12.40;99.90;;;-144.05;76.46;125687.94;5013865;28;20030;-82
2022/10/05 04:07:50;;;;;;;10.32;6.45;;;12.40;99.90;;;-144.05;76.25;125687.94;5014510;28;20030;-82
2022/10/05 04:10:44;;;;;;;12.75;6.78;;;12.50;99.90;;;-144.05;76.68;125687.94;5015818;28;20053;-80
2022/10/05 04:13:37;;;;;;;13.15;6.57;;;12.40;99.90;;;-144.05;76.82;125687.94;5015728;28;20040;-79
2022/10/05 04:16:49;;;;;;;10.02;6.40;;;12.40;99.90;;;-144.05;76.80;125687.94;5015523;28;20101;-81
2022/10/05 04:19:36;;;;;;;10.25;6.35;;;12.50;99.90;;;-144.05;76.77;125687.94;5015421;28;20049;-85
2022/10/05 04:22:42;;;;;;;11.90;6.43;;;12.40;99.90;;;-144.05;76.19;125687.94;5013716;28;20022;-80
2022/10/05 04:25:25;;;;;;;13.10;7.13;;;12.40;99.90;;;-144.05;76.27;125687.94;5015932;28;20058;-79
2022/10/05 04:28:20;;;;;;;9.77;6.05;;;12.40;99.90;;;-144.05;76.48;125687.94;5014576;28;20513;-80
2022/10/05 04:30:52;;;;;;;9.45;6.50;;;12.40;99.90;;;-144.05;76.69;125687.94;5014569;28;20124;-80
2022/10/05 04:33:19;;;;;;;10.07;6.47;;;12.40;99.90;;;-144.05;76.51;125687.94;5015827;28;20057;-81
2022/10/05 04:36:00;;;;;;;12.00;7.00;;;12.40;99.90;;;-144.05;75.88;125687.94;5014199;28;20253;-81
2022/10/05 04:38:58;;;;;;;10.77;6.63;;;12.40;99.90;;;-144.05;76.17;125687.94;5014482;28;20186;-82
2022/10/05 04:42:17;;;;;;;10.15;6.18;;;12.40;99.90;;;-144.05;75.79;125687.94;5015778;28;20034;-81
2022/10/05 04:45:05;;;;;;;10.63;6.63;;;12.40;99.90;;;-144.05;76.22;125687.94;5013892;28;20473;-79
2022/10/05 04:48:00;;;;;;;11.30;6.95;;;12.40;99.90;;;-144.05;75.86;125687.94;5015738;28;20125;-81
2022/10/05 04:51:25;;;;;;;11.52;6.85;;;12.40;99.90;;;-144.05;75.92;125687.94;5014323;28;20041;-82
2022/10/05 04:54:06;;;;;;;13.07;6.93;;;12.40;99.90;;;-144.05;75.85;125687.94;5014947;28;20056;-81
2022/10/05 04:56:51;;;;;;;14.45;6.85;;;12.40;99.90;;;-144.05;75.83;125687.94;5014944;28;20029;-80
2022/10/05 04:59:38;;;;;;;8.15;5.57;;;12.40;99.90;;;-144.05;75.45;125687.94;5030141;28;20026;-80
2022/10/05 05:02:16;;;;;;;11.82;6.43;;;12.40;99.90;;;-144.05;75.59;125687.94;5014982;28;20596;-80
2022/10/05 05:05:25;;;;;;;14.20;7.03;;;12.40;99.90;;;-144.05;76.20;125687.94;5015525;28;20065;-81
2022/10/05 05:08:15;;;;;;;12.52;6.68;;;12.40;99.90;;;-144.05;76.41;125687.94;5013734;28;20025;-82
2022/10/05 05:11:37;;;;;;;8.75;6.03;;;12.40;99.90;;;-144.05;76.17;125687.94;5013541;28;20022;-79
2022/10/05 05:14:20;;;;;;;10.30;6.45;;;12.40;99.90;;;-144.05;75.94;125687.94;5011361;28;20058;-80
2022/10/05 05:17:41;;;;;;;13.55;6.88;;;12.40;99.90;;;-144.05;76.39;125687.94;5013102;28;20357;-79
2022/10/05 05:20:38;;;;;;;12.15;7.18;;;12.40;99.90;;;-144.05;76.17;125687.94;5013178;28;20022;-79
2022/10/05 05:23:33;;;;;;;11.85;7.53;;;12.40;99.90;;;-144.05;76.59;125687.94;5014783;28;20342;-81
2022/10/05 05:26:38;;;;;;;9.77;6.68;;;12.50;99.90;;;-144.05;75.79;125687.94;5013422;28;20037;-79
2022/10/05 05:29:36;;;;;;;13.18;6.15;;;12.50;99.90;;;-144.05;76.17;125687.94;5013209;28;20036;-80
2022/10/05 05:32:39;;;;;;;10.30;6.75;;;12.40;99.90;;;-144.05;75.80;125687.94;5014503;28;20030;-80
2022/10/05 05:36:01;;;;;;;12.82;7.05;;;12.50;99.90;;;-144.05;75.73;125687.94;5014319;28;20504;-80
2022/10/05 05:38:45;;;;;;;11.43;7.00;;;12.50;99.90;;;-144.05;76.02;125687.94;4976975;28;20041;-84
2022/10/05 05:41:38;;;;;;;12.75;7.13;;;12.50;99.90;;;-144.05;75.80;125687.94;5012978;28;20566;-80
2022/10/05 05:44:25;;;;;;;14.02;6.82;;;12.50;99.90;;;-144.05;75.35;125687.94;5014540;28;20030;-79
2022/10/05 05:47:22;;;;;;;11.07;6.63;;;12.50;99.90;;;-144.05;74.81;125687.94;5014850;28;20076;-81
2022/10/05 05:50:29;;;;;;;9.57;6.20;;;12.60;99.90;;;-144.05;74.95;125687.94;5014870;28;20030;-81
2022/10/05 05:53:16;;;;;;;11.43;7.32;;;12.70;99.90;;;-144.05;74.73;125687.94;5015199;28;20052;-80
2022/10/05 05:55:51;;;;;;;8.75;6.10;;;12.80;99.90;;;-144.05;74.11;125687.94;5013717;28;20392;-82
2022/10/05 05:58:36;;;;;;;10.15;5.93;;;12.80;99.90;;;-144.05;74.25;125687.94;5014290;28;20434;-81
2022/10/05 06:01:20;;;;;;;10.35;6.80;;;12.80;99.90;;;-144.05;74.69;125687.94;5013545;28;20061;-82
2022/10/05 06:03:58;;;;;;;11.25;6.10;;;12.80;99.90;;;-144.05;74.17;125687.94;5014359;28;20455;-80
2022/10/05 06:06:34;;;;;;;11.57;6.65;;;12.80;99.90;;;-144.05;73.94;125687.94;5013664;28;20500;-81
2022/10/05 06:09:32;;;;;;;13.95;6.97;;;12.90;99.90;;;-144.05;73.45;125687.94;5012918;28;20107;-81
2022/10/05 06:12:14;;;;;;;8.52;6.28;;;12.90;99.90;;;-144.05;73.64;125687.94;5014356;28;20026;-81
2022/10/05 06:14:55;;;;;;;9.10;6.05;;;13.00;99.90;;;-144.05;73.30;125687.94;5013632;28;20158;-80
2022/10/05 06:17:46;;;;;;;12.82;6.45;;;13.00;99.90;;;-144.05;73.13;125687.94;5013719;28;20045;-81
2022/10/05 06:20:37;;;;;;;11.05;6.50;;;13.00;99.90;;;-144.05;72.94;125687.94;5013567;28;20030;-80
2022/10/05 06:23:20;;;;;;;11.70;6.10;;;13.00;99.90;;;-144.05;72.63;125687.94;5012482;28;20032;-79
2022/10/05 06:26:28;;;;;;;8.35;5.55;;;13.10;99.90;;;-144.05;72.91;125687.94;5012178;28;20497;-83
2022/10/05 06:29:04;;;;;;;11.90;5.93;;;13.20;99.90;;;-144.05;72.69;125687.94;5014139;28;20036;-79
2022/10/05 06:32:24;;;;;;;10.98;5.72;;;13.20;99.90;;;-144.05;72.77;125687.94;5012376;28;20057;-82
2022/10/05 06:35:51;;;;;;;11.25;5.70;;;13.20;99.90;;;-144.05;72.77;125687.94;5013782;28;20034;-80
2022/10/05 06:38:38;;;;;;;8.88;6.22;;;13.30;99.90;;;-144.05;72.02;125687.94;5013569;28;20044;-81
2022/10/05 06:41:59;;;;;;;8.50;5.13;;;13.40;99.90;;;-144.05;71.37;125687.94;5012479;28;20475;-81
2022/10/05 06:44:46;;;;;;;8.70;5.53;;;13.40;99.90;;;-144.05;71.27;125687.94;5011885;28;20042;-81
2022/10/05 06:47:45;;;;;;;10.55;5.40;;;13.50;99.90;;;-144.05;70.93;125687.94;5014089;28;20459;-81
2022/10/05 06:50:47;;;;;;;7.88;4.18;;;13.60;99.90;;;-144.05;70.74;125687.94;5011923;28;20026;-82
2022/10/05 06:54:02;;;;;;;10.10;5.40;;;13.60;99.90;;;-144.05;70.64;125687.94;5028542;28;20053;-82
2022/10/05 06:57:23;;;;;;;8.40;5.30;;;13.70;99.90;;;-144.05;70.44;125687.94;5013387;28;20070;-81
2022/10/05 07:00:23;;;;;;;9.65;5.57;;;13.70;99.90;;;-144.05;70.34;125687.94;5012299;28;20062;-79
2022/10/05 07:03:20;;;;;;;7.28;4.85;;;13.80;99.90;;;-144.05;70.57;125687.94;5013766;28;20485;-81
2022/10/05 07:06:38;;;;;;;8.35;5.10;;;13.90;99.90;;;-144.05;70.08;125687.94;5013660;28;20065;-81
2022/10/05 07:09:36;;;;;;;6.20;4.40;;;13.90;99.90;;;-144.05;69.73;125687.94;5017810;28;20359;-81
2022/10/05 07:12:42;;;;;;;7.97;4.55;;;14.00;99.90;;;-144.05;69.34;125687.94;5019321;28;20040;-81
2022/10/05 07:15:39;;;;;;;6.57;4.78;;;14.10;99.90;;;-144.05;68.74;125687.94;5018146;28;20036;-82
2022/10/05 07:18:33;;;;;;;6.35;4.47;;;14.10;99.90;;;-144.05;68.54;125687.94;5016860;28;20034;-81
2022/10/05 07:21:24;;;;;;;7.18;4.93;;;14.20;99.90;;;-144.05;68.79;125687.94;5018191;28;20121;-83
2022/10/05 07:24:28;;;;;;;10.07;4.40;;;14.20;99.90;;;-144.05;68.59;125687.94;5017137;28;20468;-80
2022/10/05 07:27:16;;;;;;;8.27;4.72;;;14.30;99.90;;;-144.05;68.28;125687.94;5013849;28;20062;-81
2022/10/05 07:30:11;;;;;;;7.50;4.32;;;14.30;99.90;;;-144.05;68.17;125687.94;5018027;28;20050;-81
2022/10/05 07:33:22;;;;;;;5.78;4.28;;;14.30;99.90;;;-144.05;68.23;125687.94;5016843;28;20080;-81
2022/10/05 07:39:06;;;;;;;7.82;4.40;;;14.40;99.90;;;-144.05;67.98;125687.94;5018243;28;20134;-83
2022/10/05 07:42:09;;;;;;;7.30;4.80;;;14.40;99.90;;;-144.05;68.18;125687.94;5016870;28;20025;-81
2022/10/05 07:44:57;;;;;;;11.60;4.10;;;14.40;99.90;;;-144.05;67.90;125687.94;5016633;28;20513;-83
2022/10/05 07:47:52;;;;;;;8.65;4.38;;;14.50;99.90;;;-144.05;67.52;125687.94;5017309;28;20033;-82
2022/10/05 07:50:47;;;;;;;7.80;4.20;;;14.50;99.90;;;-144.05;68.14;125687.94;5016770;28;20048;-79
2022/10/05 07:53:27;;;;;;;6.32;4.15;;;14.50;99.90;;;-144.05;67.72;125687.94;5016888;28;20038;-82
2022/10/05 07:56:04;;;;;;;5.07;4.30;;;14.60;99.90;;;-144.05;67.53;125687.94;5017183;28;20079;-82
2022/10/05 07:58:42;;;;;;;6.05;4.07;;;14.60;99.90;;;-144.05;67.13;125687.94;5016864;28;20037;-81
2022/10/05 08:01:26;;;;;;;10.88;4.57;;;14.70;99.90;;;-144.05;66.96;125687.94;5016851;28;20030;-81
2022/10/05 08:04:09;;;;;;;5.80;4.03;;;14.70;99.90;;;-144.05;67.20;125687.94;5018323;28;20321;-84
2022/10/05 08:06:59;;;;;;;8.02;4.20;;;14.80;99.90;;;-144.05;66.58;125687.94;5017430;28;20425;-83
2022/10/05 08:09:54;;;;;;;4.35;3.30;;;14.80;99.90;;;-144.05;66.27;125687.94;5017301;28;20549;-84
2022/10/05 08:12:55;;;;;;;7.00;4.45;;;14.90;99.90;;;-144.05;66.27;125687.94;5030816;28;20018;-81
2022/10/05 08:15:56;;;;;;;5.00;3.65;;;15.00;99.90;;;-144.05;65.78;125687.94;5040964;28;20049;-79
2022/10/05 08:19:05;;;;;;;7.40;3.92;;;15.00;99.90;;;-144.05;65.28;125687.94;5037504;28;20042;-80
2022/10/05 08:21:42;;;;;;;6.90;3.72;;;15.10;99.90;;;-144.05;66.29;125687.94;5038105;28;20052;-77
2022/10/05 08:24:38;;;;;;;6.53;3.88;;;15.10;99.90;;;-144.05;65.85;125687.94;5034234;28;20038;-82
2022/10/05 08:27:51;;;;;;;5.43;3.58;;;15.10;99.90;;;-144.05;65.39;125687.94;5014471;28;20033;-81
2022/10/05 08:30:18;;;;;;;4.88;3.53;;;15.20;99.90;;;-144.05;65.70;125687.94;5012094;28;20038;-82
2022/10/05 08:33:15;;;;;;;6.68;3.47;;;15.20;99.90;;;-144.05;65.05;125687.94;5013975;28;20053;-81
2022/10/05 08:36:02;;;;;;;6.60;3.67;;;15.20;99.90;;;-144.05;64.77;125687.94;5014350;28;20026;-81
2022/10/05 08:38:32;;;;;;;4.93;3.35;;;15.20;99.90;;;-144.05;65.09;125687.94;5014053;28;20026;-82
2022/10/05 08:41:35;;;;;;;6.72;3.47;;;15.30;99.90;;;-144.05;64.31;125687.94;5012855;28;20507;-82
2022/10/05 08:44:57;;;;;;;8.32;3.45;;;15.40;99.90;;;-144.05;64.10;125687.94;5012706;28;20036;-81
2022/10/05 08:48:20;;;;;;;6.22;3.30;;;15.50;99.90;;;-144.05;64.42;125687.94;5012631;28;20117;-82
2022/10/05 08:51:17;;;;;;;4.60;3.47;;;15.50;99.90;;;-144.05;63.51;125687.94;5012643;28;20033;-82
2022/10/05 08:54:10;;;;;;;5.80;3.47;;;15.60;99.90;;;-144.05;63.67;125687.94;5013733;28;20045;-80
2022/10/05 08:56:50;;;;;;;5.82;2.65;;;15.60;99.90;;;-144.05;63.09;125687.94;5013884;28;20033;-80
2022/10/05 08:59:57;;;;;;;4.75;2.78;;;15.70;99.90;;;-144.05;62.40;125687.94;5014025;28;20104;-82
2022/10/05 09:03:10;;;;;;;7.97;3.10;;;15.70;99.90;;;-144.05;63.04;125687.94;5012397;28;20030;-81
2022/10/05 09:06:16;;;;;;;4.45;3.10;;;15.80;99.90;;;-144.05;63.24;125687.94;5012288;28;20436;-81
2022/10/05 09:10:10;;;;;;;5.13;2.53;;;15.80;99.90;;;-144.05;63.28;125687.94;5013870;28;20022;-80
2022/10/05 09:13:22;;;;;;;6.60;3.00;;;15.80;99.90;;;-144.05;63.06;125687.94;5012663;28;20061;-82
2022/10/05 09:16:49;;;;;;;4.82;2.70;;;15.90;99.90;;;-144.05;62.46;125687.94;5012166;28;20034;-81
2022/10/05 09:19:48;;;;;;;5.93;2.78;;;15.90;99.90;;;-144.05;62.03;125687.94;5028653;28;20030;-79
2022/10/05 09:22:30;;;;;;;4.97;2.80;;;16.00;99.90;;;-144.05;62.23;125687.94;5013559;28;20057;-81
2022/10/05 09:25:17;;;;;;;4.60;2.40;;;16.10;99.90;;;-144.05;62.74;125687.94;5012002;28;20147;-82
2022/10/05 09:28:01;;;;;;;;;;;16.10;99.90;;;-144.05;61.76;125687.94;5013665;28;20037;-80
2022/10/05 09:31:20;;;;;;;5.28;2.72;;;16.20;99.90;;;-144.05;62.23;125687.94;5013236;28;19909;-82
2022/10/05 09:34:26;;;;;;;4.88;2.28;;;16.20;99.90;;;-144.05;61.55;125687.94;5010993;28;20056;-83
2022/10/05 09:37:28;;;;;;;5.75;3.05;;;16.30;99.90;;;-144.05;61.48;125687.94;5012596;28;20085;-83
2022/10/05 09:40:34;;;;;;;3.47;2.53;;;16.40;99.90;;;-144.05;60.31;125687.94;5012994;28;20060;-81
2022/10/05 09:43:43;;;;;;;6.10;2.58;;;16.50;99.90;;;-144.05;60.97;125687.94;5012039;28;20040;-80
2022/10/05 09:46:57;;;;;;;6.00;2.97;;;16.60;99.90;;;-144.05;60.65;125687.94;5011967;28;20584;-83
2022/10/05 09:50:44;;;;;;;3.63;2.92;;;16.60;99.90;;;-144.05;60.29;125687.94;5013076;28;20030;-81
2022/10/05 09:53:55;;;;;;;5.63;2.78;;;16.80;99.90;;;-144.05;59.31;125687.94;4994293;28;20149;-81
2022/10/05 09:57:25;;;;;;;3.45;2.83;;;16.80;99.90;;;-144.05;59.31;125687.94;5011701;28;20029;-81
2022/10/05 10:00:37;;;;;;;4.70;2.97;;;17.00;99.90;;;-144.05;58.29;125687.94;5011474;28;20527;-79
2022/10/05 10:03:43;;;;;;;4.85;2.67;;;17.10;99.90;;;-144.05;58.44;125687.94;5011533;28;20034;-81
2022/10/05 10:06:45;;;;;;;3.55;2.47;;;17.10;99.90;;;-144.05;58.90;125687.94;5011436;28;20057;-81
2022/10/05 10:09:53;;;;;;;3.75;2.53;;;17.10;99.90;;;-144.05;58.89;125687.94;5012475;28;20037;-81
2022/10/05 10:13:03;;;;;;;3.67;2.40;;;17.10;99.90;;;-144.05;59.47;125687.94;5011212;28;20381;-81
2022/10/05 10:16:11;;;;;;;2.78;2.17;;;17.10;99.90;;;-144.05;59.08;125687.94;5011051;28;20061;-81
2022/10/05 10:19:39;;;;;;;4.00;2.42;;;17.10;99.90;;;-144.05;57.37;125687.94;5012622;28;20064;-80
2022/10/05 10:23:16;;;;;;;4.63;2.92;;;17.20;99.90;;;-144.05;58.62;125687.94;5012370;28;20037;-82
2022/10/05 10:26:13;;;;;;;3.40;2.38;;;17.20;99.90;;;-144.05;58.79;125687.94;5012860;28;20453;-78
2022/10/05 10:29:36;;;;;;;4.88;2.45;;;17.30;99.90;;;-144.05;58.61;125687.94;5011368;28;20132;-82
2022/10/05 10:32:49;;;;;;;2.60;2.20;;;17.30;99.90;;;-144.05;58.23;125687.94;5010947;28;20034;-84
2022/10/05 10:35:38;;;;;;;2.78;2.30;;;17.30;99.90;;;-144.05;58.65;125687.94;5012154;28;20042;-83
2022/10/05 10:38:40;;;;;;;5.68;2.60;;;17.30;99.90;;;-144.05;58.65;125687.94;5028154;28;20029;-83
2022/10/05 10:41:26;;;;;;;3.45;2.17;;;17.30;99.90;;;-144.05;59.18;125687.94;5011663;28;20089;-86
2022/10/05 10:44:45;;;;;;;3.05;2.20;;;17.20;99.90;;;-144.05;59.29;125687.94;5011298;28;20025;-83
2022/10/05 10:47:51;;;;;;;5.65;1.88;;;17.20;99.90;;;-144.05;58.47;125687.94;5011403;28;20033;-85
2022/10/05 10:51:12;;;;;;;7.43;2.15;;;17.20;99.90;;;-144.05;58.90;125687.94;5012558;28;20111;-81
2022/10/05 10:54:26;;;;;;;8.18;2.58;;;17.20;99.90;;;-144.05;58.41;125687.94;5011048;28;20022;-85
2022/10/05 10:57:10;;;;;;;3.25;2.33;;;17.20;99.90;;;-144.05;58.26;125687.94;5010461;28;20490;-83
2022/10/05 11:00:22;;;;;;;4.80;2.20;;;17.20;99.90;;;-144.05;58.49;125687.94;5010545;28;20109;-82
2022/10/05 11:04:12;;;;;;;2.97;2.05;;;17.20;99.90;;;-144.05;57.71;125687.94;5011693;28;20493;-82
2022/10/05 11:07:18;;;;;;;4.07;2.40;;;17.20;99.90;;;-144.05;58.35;125687.94;5010200;28;20504;-81
2022/10/05 11:10:25;;;;;;;2.97;2.00;;;17.20;99.90;;;-144.05;58.38;125687.94;5011889;28;20525;-80
2022/10/05 11:14:01;;;;;;;3.28;1.80;;;17.30;99.90;;;-144.05;57.21;125687.94;5010839;28;20041;-81
2022/10/05 11:16:47;;;;;;;4.25;1.80;;;17.50;99.90;;;-144.05;57.32;125687.94;5011057;28;20038;-81
2022/10/05 11:19:44;;;;;;;3.20;2.33;;;17.50;99.90;;;-144.05;57.11;125687.94;5011653;28;20052;-79
2022/10/05 11:22:46;;;;;;;3.38;2.00;;;17.60;99.90;;;-144.05;56.83;125687.94;5010367;28;20034;-81
2022/10/05 11:26:02;;;;;;;5.53;2.45;;;17.60;99.90;;;-144.05;56.71;125687.94;5010148;28;20038;-81
2022/10/05 11:28:44;;;;;;;3.47;1.95;;;17.80;99.90;;;-144.05;56.50;125687.94;5011961;28;20096;-82
2022/10/05 11:31:58;;;;;;;2.55;1.90;;;17.90;99.90;;;-144.05;55.56;125687.94;5012158;28;20029;-80
2022/10/05 11:34:58;;;;;;;3.90;1.85;;;18.00;99.90;;;-144.05;55.02;125687.94;5012038;28;20029;-80
2022/10/05 11:38:13;;;;;;;3.33;1.85;;;18.40;99.90;;;-144.05;53.79;125687.94;5011009;28;20378;-83
2022/10/05 11:41:40;;;;;;;3.08;1.83;;;18.70;99.90;;;-144.05;54.22;125687.94;5010157;28;20022;-83
2022/10/05 11:44:50;;;;;;;6.55;1.75;;;18.80;99.90;;;-144.05;52.98;125687.94;5011445;28;20068;-81
2022/10/05 11:47:31;;;;;;;3.08;1.73;;;19.00;99.90;;;-144.05;52.36;125687.94;5010112;28;20460;-81
2022/10/05 11:50:38;;;;;;;5.47;1.98;;;19.30;99.90;;;-144.05;52.36;125687.94;5011877;28;20033;-82
2022/10/05 11:53:43;;;;;;;2.90;1.85;;;19.20;99.90;;;-144.05;52.77;125687.94;5011274;28;20052;-82
2022/10/05 11:56:42;;;;;;;3.53;1.80;;;19.30;99.90;;;-144.05;51.57;125687.94;5015109;28;20480;-82
2022/10/05 11:59:26;;;;;;;3.08;1.80;;;19.70;99.90;;;-144.05;52.07;125687.94;5013669;28;20114;-81
2022/10/05 12:02:12;;;;;;;2.97;2.42;;;19.90;99.90;;;-144.05;51.35;125687.94;5014934;28;20049;-80
2022/10/05 12:05:41;;;;;;;5.97;2.22;;;20.00;99.90;;;-144.05;51.98;125687.94;5013461;28;20580;-82